createdAt,value
2023-05-06T00:01:46.869Z,12.80
2023-05-06T00:04:48.696Z,12.80
2023-05-06T00:07:50.631Z,12.80
2023-05-06T00:10:52.328Z,12.70
2023-05-06T00:13:54.080Z,12.70
2023-05-06T00:16:55.920Z,12.70
2023-05-06T00:19:58.727Z,12.80
2023-05-06T00:23:00.561Z,12.70
2023-05-06T00:26:02.410Z,12.70
2023-05-06T00:29:04.135Z,12.70
2023-05-06T00:32:06.122Z,12.70
2023-05-06T00:35:09.240Z,12.70
2023-05-06T00:38:13.306Z,12.70
2023-05-06T00:41:15.053Z,12.70
2023-05-06T00:44:16.833Z,12.70
2023-05-06T00:47:19.042Z,12.70
2023-05-06T00:50:41.110Z,12.70
2023-05-06T00:53:43.626Z,12.70
2023-05-06T00:56:45.585Z,12.60
2023-05-06T00:59:47.265Z,12.60
2023-05-06T01:02:49.648Z,12.60
2023-05-06T01:05:59.874Z,12.60
2023-05-06T01:09:25.073Z,12.60
2023-05-06T01:12:37.370Z,12.60
2023-05-06T01:15:49.331Z,12.60
2023-05-06T01:18:52.470Z,12.60
2023-05-06T01:21:56.239Z,12.60
2023-05-06T01:24:57.951Z,12.60
2023-05-06T01:27:59.560Z,12.60
2023-05-06T01:31:05.518Z,12.50
2023-05-06T01:34:18.127Z,12.50
2023-05-06T01:37:39.800Z,12.40
2023-05-06T01:40:42.594Z,12.30
2023-05-06T01:43:47.275Z,12.40
2023-05-06T01:46:51.438Z,12.30
2023-05-06T01:49:53.355Z,12.30
2023-05-06T01:53:02.873Z,12.30
2023-05-06T01:56:05.017Z,12.30
2023-05-06T01:59:06.737Z,12.30
2023-05-06T02:02:08.462Z,12.30
2023-05-06T02:05:10.417Z,12.30
2023-05-06T02:08:12.363Z,12.50
2023-05-06T02:11:14.309Z,12.40
2023-05-06T02:14:16.030Z,12.40
2023-05-06T02:17:17.690Z,12.40
2023-05-06T02:20:19.367Z,12.50
2023-05-06T02:23:21.110Z,12.40
2023-05-06T02:26:22.843Z,12.30
2023-05-06T02:29:24.463Z,12.30
2023-05-06T02:32:26.175Z,12.20
2023-05-06T02:35:27.886Z,12.20
2023-05-06T02:38:29.526Z,12.30
2023-05-06T02:41:31.201Z,12.30
2023-05-06T02:44:32.850Z,12.20
2023-05-06T02:47:34.593Z,12.20
2023-05-06T02:50:36.342Z,12.20
2023-05-06T02:53:38.093Z,12.20
2023-05-06T02:56:39.942Z,12.20
2023-05-06T02:59:41.636Z,12.20
2023-05-06T03:02:43.372Z,12.20
2023-05-06T03:05:45.657Z,12.20
2023-05-06T03:08:47.306Z,12.10
2023-05-06T03:11:49.154Z,12.00
2023-05-06T03:14:50.822Z,11.90
2023-05-06T03:17:52.569Z,11.80
2023-05-06T03:20:54.433Z,11.80
2023-05-06T03:24:18.003Z,11.80
2023-05-06T03:27:19.688Z,11.70
2023-05-06T03:30:21.412Z,11.80
2023-05-06T03:33:23.266Z,11.80
2023-05-06T03:36:25.353Z,11.80
2023-05-06T03:39:27.094Z,11.80
2023-05-06T03:42:28.764Z,11.70
2023-05-06T03:45:30.441Z,11.70
2023-05-06T03:48:32.089Z,11.80
2023-05-06T03:51:34.345Z,11.80
2023-05-06T03:54:36.082Z,11.80
2023-05-06T03:57:38.838Z,11.90
2023-05-06T04:00:40.667Z,11.90
2023-05-06T04:03:42.388Z,11.90
2023-05-06T04:06:44.496Z,11.90
2023-05-06T04:09:46.163Z,11.80
2023-05-06T04:12:47.852Z,11.80
2023-05-06T04:15:50.236Z,11.80
2023-05-06T04:18:52.771Z,11.80
2023-05-06T04:21:54.471Z,11.80
2023-05-06T04:24:56.234Z,11.70
2023-05-06T04:27:57.927Z,11.70
2023-05-06T04:30:59.624Z,11.60
2023-05-06T04:34:01.592Z,11.60
2023-05-06T04:37:03.660Z,11.60
2023-05-06T04:40:06.133Z,11.50
2023-05-06T04:43:08.089Z,11.50
2023-05-06T04:46:10.394Z,11.50
2023-05-06T04:49:12.619Z,11.40
2023-05-06T04:52:14.426Z,11.40
2023-05-06T04:55:16.140Z,11.50
2023-05-06T04:58:20.670Z,11.40
2023-05-06T05:01:22.497Z,11.40
2023-05-06T05:04:24.203Z,11.40
2023-05-06T05:07:25.939Z,11.40
2023-05-06T05:10:27.621Z,11.40
2023-05-06T05:13:29.335Z,11.40
2023-05-06T05:16:31.389Z,11.40
2023-05-06T05:19:33.058Z,11.40
2023-05-06T05:22:34.724Z,11.50
2023-05-06T05:25:36.419Z,11.50
2023-05-06T05:28:38.161Z,11.50
2023-05-06T05:31:40.463Z,11.50
2023-05-06T05:34:42.299Z,11.60
2023-05-06T05:37:43.994Z,11.90
2023-05-06T05:40:45.667Z,12.40
2023-05-06T05:43:47.393Z,13.00
2023-05-06T05:46:49.564Z,13.70
2023-05-06T05:49:51.483Z,14.60
2023-05-06T05:52:53.159Z,15.40
2023-05-06T05:55:54.858Z,15.60
2023-05-06T05:58:56.740Z,15.60
2023-05-06T06:01:58.540Z,15.70
2023-05-06T06:05:00.614Z,15.80
2023-05-06T06:08:03.810Z,15.80
2023-05-06T06:11:06.730Z,15.90
2023-05-06T06:14:08.476Z,16.20
2023-05-06T06:17:10.169Z,16.40
2023-05-06T06:20:13.026Z,16.40
2023-05-06T06:23:15.297Z,16.60
2023-05-06T06:26:16.982Z,17.00
2023-05-06T06:29:18.685Z,17.40
2023-05-06T06:32:20.368Z,17.90
2023-05-06T06:35:23.398Z,18.40
2023-05-06T06:38:25.814Z,19.10
2023-05-06T06:41:28.148Z,19.40
2023-05-06T06:44:30.555Z,19.30
2023-05-06T06:47:32.233Z,19.00
2023-05-06T06:50:33.969Z,18.60
2023-05-06T06:53:35.655Z,18.20
2023-05-06T06:56:37.326Z,18.30
2023-05-06T06:59:38.985Z,18.70
2023-05-06T07:02:40.736Z,18.50
2023-05-06T07:05:42.543Z,18.40
2023-05-06T07:08:44.317Z,18.40
2023-05-06T07:11:46.130Z,18.80
2023-05-06T07:14:47.772Z,19.00
2023-05-06T07:17:49.457Z,18.80
2023-05-06T07:20:51.233Z,19.10
2023-05-06T07:23:53.277Z,19.60
2023-05-06T07:26:54.960Z,19.80
2023-05-06T07:29:56.782Z,19.60
2023-05-06T07:32:59.583Z,19.40
2023-05-06T07:36:01.315Z,19.10
2023-05-06T07:39:02.986Z,18.90
2023-05-06T07:42:04.977Z,18.70
2023-05-06T07:45:07.419Z,18.80
2023-05-06T07:48:09.175Z,18.90
2023-05-06T07:51:11.411Z,18.90
2023-05-06T07:54:13.082Z,19.40
2023-05-06T07:57:15.824Z,19.90
2023-05-06T08:00:18.223Z,20.20
2023-05-06T08:03:20.013Z,20.00
2023-05-06T08:06:21.901Z,20.10
2023-05-06T08:09:23.599Z,20.00
2023-05-06T08:12:25.306Z,19.80
2023-05-06T08:15:27.020Z,19.70
2023-05-06T08:18:28.717Z,20.10
2023-05-06T08:21:30.796Z,20.40
2023-05-06T08:24:32.466Z,20.20
2023-05-06T08:27:34.215Z,20.10
2023-05-06T08:30:36.586Z,20.10
2023-05-06T08:33:38.275Z,20.30
2023-05-06T08:36:39.978Z,20.10
2023-05-06T08:39:42.770Z,20.20
2023-05-06T08:42:47.831Z,20.80
2023-05-06T08:45:49.755Z,21.00
2023-05-06T08:48:52.823Z,20.80
2023-05-06T08:51:54.669Z,20.80
2023-05-06T08:55:01.317Z,20.30
2023-05-06T08:58:05.969Z,19.80
2023-05-06T09:01:08.012Z,19.50
2023-05-06T09:04:10.678Z,20.00
2023-05-06T09:07:12.392Z,20.30
2023-05-06T09:10:15.180Z,20.00
2023-05-06T09:13:19.341Z,20.30
2023-05-06T09:16:31.084Z,20.90
2023-05-06T09:19:37.823Z,21.70
2023-05-06T09:22:42.333Z,21.80
2023-05-06T09:25:45.965Z,22.00
2023-05-06T09:28:47.821Z,22.10
2023-05-06T09:31:49.742Z,21.90
2023-05-06T09:34:51.607Z,21.80
2023-05-06T09:37:53.686Z,21.80
2023-05-06T09:40:55.989Z,21.40
2023-05-06T09:43:59.115Z,21.00
2023-05-06T09:47:01.713Z,20.10
2023-05-06T09:50:03.912Z,19.60
2023-05-06T09:53:06.411Z,19.30
2023-05-06T09:56:08.926Z,19.30
2023-05-06T09:59:11.989Z,19.50
2023-05-06T10:02:14.088Z,20.00
2023-05-06T10:05:17.173Z,20.30
2023-05-06T10:08:19.473Z,20.40
2023-05-06T10:11:22.933Z,20.10
2023-05-06T10:14:25.339Z,20.30
2023-05-06T10:17:28.555Z,20.40
2023-05-06T10:20:31.370Z,20.30
2023-05-06T10:23:52.117Z,20.70
2023-05-06T10:26:56.389Z,20.60
2023-05-06T10:30:00.019Z,20.20
2023-05-06T10:33:07.292Z,19.60
2023-05-06T10:36:11.701Z,19.30
2023-05-06T10:39:14.274Z,19.30
2023-05-06T10:42:17.184Z,19.70
2023-05-06T10:45:18.929Z,19.70
2023-05-06T10:48:20.612Z,19.30
2023-05-06T10:51:24.072Z,19.10
2023-05-06T10:54:26.024Z,19.00
2023-05-06T10:57:41.122Z,18.80
2023-05-06T11:00:52.549Z,18.70
2023-05-06T11:03:54.919Z,18.70
2023-05-06T11:07:13.605Z,18.60
2023-05-06T11:10:15.345Z,18.50
2023-05-06T11:13:28.887Z,18.70
2023-05-06T11:16:50.562Z,19.00
2023-05-06T11:20:21.542Z,19.30
2023-05-06T11:23:46.868Z,19.40
2023-05-06T11:26:49.607Z,19.50
2023-05-06T11:29:51.323Z,19.60
2023-05-06T11:32:55.691Z,19.70
2023-05-06T11:35:57.456Z,19.50
2023-05-06T11:39:06.423Z,19.20
2023-05-06T11:42:09.015Z,19.00
2023-05-06T11:45:12.260Z,19.10
2023-05-06T11:48:15.427Z,18.90
2023-05-06T11:51:22.580Z,18.90
2023-05-06T11:54:26.242Z,19.00
2023-05-06T11:57:27.943Z,19.10
2023-05-06T12:00:29.663Z,19.20
2023-05-06T12:03:33.047Z,19.30
2023-05-06T12:06:35.916Z,19.30
2023-05-06T12:09:43.310Z,19.40
2023-05-06T12:12:45.090Z,19.50
2023-05-06T12:15:48.219Z,19.30
2023-05-06T12:18:52.075Z,19.10
2023-05-06T12:21:53.742Z,18.90
2023-05-06T12:24:55.500Z,18.70
2023-05-06T12:27:58.165Z,18.80
2023-05-06T12:31:00.733Z,18.90
2023-05-06T12:34:03.180Z,19.10
2023-05-06T12:37:06.144Z,19.30
2023-05-06T12:40:49.885Z,19.40
2023-05-06T12:43:54.901Z,19.50
2023-05-06T12:46:56.754Z,19.60
2023-05-06T12:49:59.099Z,19.60
2023-05-06T12:53:01.402Z,19.50
2023-05-06T12:56:03.158Z,19.40
2023-05-06T12:59:04.845Z,19.50
2023-05-06T13:02:07.159Z,19.50
2023-05-06T13:05:08.968Z,19.30
2023-05-06T13:08:10.752Z,19.40
2023-05-06T13:11:12.448Z,19.20
2023-05-06T13:14:14.166Z,19.20
2023-05-06T13:17:15.984Z,19.10
2023-05-06T13:20:20.458Z,19.10
2023-05-06T13:23:22.431Z,19.10
2023-05-06T13:26:24.089Z,18.90
2023-05-06T13:29:25.924Z,19.00
2023-05-06T13:32:27.623Z,19.10
2023-05-06T13:35:30.425Z,19.30
2023-05-06T13:38:32.313Z,19.10
2023-05-06T13:41:34.481Z,18.90
2023-05-06T13:44:36.279Z,18.80
2023-05-06T13:47:37.926Z,18.90
2023-05-06T13:50:46.444Z,19.10
2023-05-06T13:53:48.224Z,19.20
2023-05-06T13:56:49.892Z,19.50
2023-05-06T13:59:51.987Z,19.70
2023-05-06T14:02:53.726Z,19.60
2023-05-06T14:05:55.656Z,19.50
2023-05-06T14:08:57.386Z,19.40
2023-05-06T14:11:59.163Z,19.40
2023-05-06T14:15:00.947Z,19.40
2023-05-06T14:18:03.674Z,19.20
2023-05-06T14:21:05.459Z,19.10
2023-05-06T14:24:08.055Z,19.00
2023-05-06T14:27:10.011Z,19.00
2023-05-06T14:30:12.171Z,19.00
2023-05-06T14:33:13.987Z,18.80
2023-05-06T14:36:19.756Z,18.70
2023-05-06T14:39:21.432Z,18.60
2023-05-06T14:42:23.095Z,18.60
2023-05-06T14:45:24.994Z,18.60
2023-05-06T14:48:26.731Z,18.80
2023-05-06T14:51:28.439Z,18.80
2023-05-06T14:54:30.120Z,18.70
2023-05-06T14:57:31.789Z,18.80
2023-05-06T15:00:33.494Z,18.90
2023-05-06T15:03:39.080Z,18.90
2023-05-06T15:06:40.796Z,18.90
2023-05-06T15:09:44.061Z,18.90
2023-05-06T15:12:45.705Z,18.80
2023-05-06T15:15:47.353Z,18.80
2023-05-06T15:18:49.070Z,18.70
2023-05-06T15:21:50.985Z,18.70
2023-05-06T15:24:52.717Z,18.60
2023-05-06T15:27:54.377Z,18.70
2023-05-06T15:30:56.057Z,18.70
2023-05-06T15:33:59.566Z,18.70
2023-05-06T15:37:02.288Z,18.60
2023-05-06T15:40:06.309Z,18.60
2023-05-06T15:43:08.473Z,18.50
2023-05-06T15:46:10.248Z,18.50
2023-05-06T15:49:45.523Z,18.50
2023-05-06T15:52:33.629Z,18.40
2023-05-06T15:55:44.502Z,18.30
2023-05-06T15:58:51.102Z,18.20
2023-05-06T16:04:57.370Z,18.20
2023-05-06T16:07:59.200Z,18.20
2023-05-06T16:11:00.863Z,18.10
2023-05-06T16:14:02.606Z,18.10
2023-05-06T16:17:04.280Z,18.10
2023-05-06T16:20:08.926Z,18.10
2023-05-06T16:23:11.051Z,18.10
2023-05-06T16:26:13.484Z,18.10
2023-05-06T16:29:18.944Z,18.10
2023-05-06T16:32:20.665Z,18.10
2023-05-06T16:35:22.490Z,18.10
2023-05-06T16:38:24.788Z,18.10
2023-05-06T16:41:26.461Z,18.00
2023-05-06T16:44:29.082Z,18.00
2023-05-06T16:47:31.075Z,17.90
2023-05-06T16:50:32.818Z,18.00
2023-05-06T16:53:34.494Z,17.90
2023-05-06T16:56:48.207Z,17.90
2023-05-06T16:59:53.447Z,17.80
2023-05-06T17:02:55.639Z,17.80
2023-05-06T17:05:57.649Z,17.80
2023-05-06T17:08:59.414Z,17.80
2023-05-06T17:12:02.325Z,17.80
2023-05-06T17:15:05.125Z,17.80
2023-05-06T17:18:16.955Z,17.90
2023-05-06T17:21:20.258Z,17.80
2023-05-06T17:24:21.903Z,17.80
2023-05-06T17:27:23.681Z,17.70
2023-05-06T17:30:25.347Z,17.60
2023-05-06T17:33:27.039Z,17.70
2023-05-06T17:36:28.693Z,17.60
2023-05-06T17:39:33.032Z,17.60
2023-05-06T17:42:34.734Z,17.60
2023-05-06T17:45:36.462Z,17.50
2023-05-06T17:48:38.108Z,17.50
2023-05-06T17:51:40.957Z,17.40
2023-05-06T17:54:42.633Z,17.30
2023-05-06T17:57:44.396Z,17.30
2023-05-06T18:00:46.281Z,17.30
2023-05-06T18:03:48.078Z,17.20
2023-05-06T18:06:49.875Z,17.20
2023-05-06T18:09:52.171Z,17.10
2023-05-06T18:12:55.392Z,17.00
2023-05-06T18:15:57.189Z,16.90
2023-05-06T18:19:00.860Z,16.80
2023-05-06T18:22:02.703Z,16.70
2023-05-06T18:25:04.891Z,16.70
2023-05-06T18:28:06.696Z,16.70
2023-05-06T18:31:08.440Z,16.60
2023-05-06T18:34:10.285Z,16.50
2023-05-06T18:37:11.981Z,16.50
2023-05-06T18:40:14.963Z,16.30
2023-05-06T18:43:16.741Z,16.30
2023-05-06T18:46:18.658Z,16.20
2023-05-06T18:49:20.367Z,16.10
2023-05-06T18:52:22.048Z,16.10
2023-05-06T18:55:23.793Z,16.00
2023-05-06T18:58:25.507Z,15.90
2023-05-06T19:01:27.382Z,15.90
2023-05-06T19:04:29.176Z,15.90
2023-05-06T19:07:30.868Z,15.80
2023-05-06T19:10:34.618Z,15.70
2023-05-06T19:13:38.911Z,15.60
2023-05-06T19:16:40.657Z,15.60
2023-05-06T19:19:42.451Z,15.50
2023-05-06T19:22:44.339Z,15.40
2023-05-06T19:25:46.027Z,15.30
2023-05-06T19:28:47.697Z,15.20
2023-05-06T19:31:49.359Z,15.10
2023-05-06T19:34:51.070Z,15.00
2023-05-06T19:37:52.970Z,14.90
2023-05-06T19:40:54.739Z,14.90
2023-05-06T19:43:56.596Z,14.80
2023-05-06T19:46:58.354Z,14.80
2023-05-06T19:50:00.164Z,14.70
2023-05-06T19:53:01.928Z,14.70
2023-05-06T19:56:11.842Z,14.60
2023-05-06T19:59:13.653Z,14.50
2023-05-06T20:02:18.023Z,14.40
2023-05-06T20:05:19.706Z,14.40
2023-05-06T20:08:24.511Z,14.30
2023-05-06T20:11:26.156Z,14.20
2023-05-06T20:14:27.938Z,14.20
2023-05-06T20:17:29.786Z,14.10
2023-05-06T20:20:34.661Z,14.10
2023-05-06T20:23:36.344Z,14.00
2023-05-06T20:26:37.994Z,13.90
2023-05-06T20:29:39.709Z,13.80
2023-05-06T20:32:41.548Z,13.90
2023-05-06T20:35:43.273Z,13.80
2023-05-06T20:38:44.950Z,13.80
2023-05-06T20:41:46.634Z,13.70
2023-05-06T20:44:50.343Z,13.70
2023-05-06T20:47:52.043Z,13.60
2023-05-06T20:50:54.963Z,13.60
2023-05-06T20:53:58.233Z,13.60
2023-05-06T20:57:02.465Z,13.50
2023-05-06T21:00:04.510Z,13.40
2023-05-06T21:03:06.350Z,13.30
2023-05-06T21:06:08.262Z,13.30
2023-05-06T21:09:09.884Z,13.20
2023-05-06T21:12:11.651Z,13.20
2023-05-06T21:15:13.614Z,13.20
2023-05-06T21:18:16.866Z,13.10
2023-05-06T21:21:18.744Z,13.00
2023-05-06T21:24:20.506Z,12.90
2023-05-06T21:27:22.170Z,12.90
2023-05-06T21:30:23.922Z,12.90
2023-05-06T21:33:25.712Z,12.80
2023-05-06T21:36:27.519Z,12.80
2023-05-06T21:39:29.172Z,12.90
2023-05-06T21:42:31.030Z,12.80
2023-05-06T21:45:32.718Z,12.70
2023-05-06T21:48:34.740Z,12.70
2023-05-06T21:51:36.823Z,12.60
2023-05-06T21:54:38.528Z,12.60
2023-05-06T21:57:40.466Z,12.50
2023-05-06T22:00:45.065Z,12.40
2023-05-06T22:03:47.594Z,12.40
2023-05-06T22:06:49.296Z,12.30
2023-05-06T22:09:50.938Z,12.30
2023-05-06T22:12:52.704Z,12.30
2023-05-06T22:15:54.480Z,12.30
2023-05-06T22:18:56.140Z,12.30
2023-05-06T22:21:58.528Z,12.30
2023-05-06T22:25:20.336Z,12.30
2023-05-06T22:28:22.039Z,12.30
2023-05-06T22:31:25.083Z,12.30
2023-05-06T22:34:26.916Z,12.20
2023-05-06T22:37:28.703Z,12.20
2023-05-06T22:40:30.572Z,12.10
2023-05-06T22:43:32.235Z,12.10
2023-05-06T22:46:33.887Z,12.10
2023-05-06T22:49:36.365Z,12.00
2023-05-06T22:52:38.916Z,11.90
2023-05-06T22:55:40.852Z,11.90
2023-05-06T22:58:42.997Z,11.80
2023-05-06T23:01:44.811Z,11.70
2023-05-06T23:04:46.770Z,11.70
2023-05-06T23:07:48.436Z,11.70
2023-05-06T23:10:50.137Z,11.60
2023-05-06T23:13:51.813Z,11.60
2023-05-06T23:16:53.553Z,11.50
2023-05-06T23:19:55.579Z,11.40
2023-05-06T23:22:57.242Z,11.50
2023-05-06T23:25:59.250Z,11.40
2023-05-06T23:29:00.969Z,11.40
2023-05-06T23:32:03.065Z,11.30
2023-05-06T23:35:07.367Z,11.30
2023-05-06T23:38:09.368Z,11.20
2023-05-06T23:41:11.767Z,11.20
2023-05-06T23:44:13.462Z,11.10
2023-05-06T23:47:15.152Z,11.10
2023-05-06T23:50:16.895Z,11.10
2023-05-06T23:53:18.549Z,11.10
2023-05-06T23:56:21.656Z,11.10
2023-05-06T23:59:23.378Z,11.10
